createdAt,value
2023-05-13T08:22:01.973Z,11.90
2023-05-13T08:24:28.756Z,16.60
2023-05-13T08:26:55.533Z,16.40
2023-05-13T08:29:22.360Z,16.40
2023-05-13T08:31:49.231Z,16.30
2023-05-13T08:34:16.947Z,16.40
2023-05-13T08:36:44.268Z,16.40
2023-05-13T08:39:11.032Z,16.30
2023-05-13T08:41:38.252Z,16.40
2023-05-13T08:44:06.775Z,16.70
2023-05-13T08:46:35.959Z,16.70
2023-05-13T08:49:03.833Z,16.90
2023-05-13T08:51:31.806Z,17.10
2023-05-13T08:53:59.964Z,17.30
2023-05-13T08:56:29.139Z,17.40
2023-05-13T08:58:56.338Z,17.60
2023-05-13T09:01:25.214Z,17.80
2023-05-13T09:04:01.383Z,17.90
2023-05-13T09:06:28.689Z,18.10
2023-05-13T09:08:56.346Z,18.10
2023-05-13T09:11:23.319Z,18.30
2023-05-13T09:14:00.398Z,18.50
2023-05-13T09:16:28.616Z,18.50
2023-05-13T09:19:04.502Z,18.70
2023-05-13T09:21:34.135Z,18.80
2023-05-13T09:24:09.581Z,18.80
2023-05-13T09:26:40.829Z,18.90
2023-05-13T09:29:19.918Z,19.00
2023-05-13T09:31:49.052Z,19.20
2023-05-13T09:34:34.662Z,19.30
2023-05-13T09:37:02.981Z,19.30
2023-05-13T09:39:33.764Z,19.40
2023-05-13T09:42:04.547Z,19.30
2023-05-13T09:44:32.272Z,19.40
2023-05-13T09:46:59.097Z,19.60
2023-05-13T09:49:29.188Z,19.80
2023-05-13T09:51:55.999Z,20.00
2023-05-13T09:54:22.789Z,20.00
2023-05-13T09:56:49.922Z,19.90
2023-05-13T09:59:16.789Z,19.80
2023-05-13T10:01:45.166Z,20.00
2023-05-13T10:04:12.284Z,20.50
2023-05-13T10:06:39.521Z,20.20
2023-05-13T10:09:08.900Z,20.30
2023-05-13T10:11:36.613Z,20.40
2023-05-13T10:14:06.512Z,20.70
2023-05-13T10:16:33.795Z,20.60
2023-05-13T10:19:01.343Z,20.70
2023-05-13T10:21:28.401Z,20.90
2023-05-13T10:23:56.599Z,20.90
2023-05-13T10:26:24.147Z,20.90
2023-05-13T10:28:51.333Z,21.00
2023-05-13T10:31:18.216Z,20.90
2023-05-13T10:33:45.611Z,21.10
2023-05-13T10:39:22.502Z,21.20
2023-05-13T10:41:52.189Z,21.50
2023-05-13T10:44:23.692Z,21.50
2023-05-13T10:46:50.850Z,21.70
2023-05-13T10:49:17.700Z,21.70
2023-05-13T10:51:49.363Z,21.90
2023-05-13T19:55:15.698Z,23.30
2023-05-13T19:57:42.891Z,17.60
2023-05-13T20:00:11.613Z,17.50
2023-05-13T20:02:39.071Z,17.30
2023-05-13T20:05:06.941Z,17.20
2023-05-13T20:07:33.834Z,17.30
2023-05-13T20:10:01.214Z,17.30
2023-05-13T20:12:28.038Z,17.20
2023-05-13T20:14:58.269Z,17.20
2023-05-13T20:17:26.018Z,17.10
2023-05-13T20:19:56.868Z,17.00
2023-05-13T20:22:23.639Z,17.10
2023-05-13T20:24:51.395Z,17.00
